Time;durP1;ratioP1;P1;durP2;ratioP2;P2;SDS_P1;SDS_P2;PMS_P1;PMS_P2;Temp;Humidity;BMP_temperature;BMP_pressure;BME280_temperature;BME280_humidity;BME280_pressure;Samples;Min_cycle;Max_cycle;Signal;HPM_P1;HPM_P2
2023/01/31 00:00:23;;;;;;;;;;;17.50;46.50;;;;;;10251450;28;1102;-76
2023/01/31 00:05:18;;;;;;;;;;;17.50;46.50;;;;;;10251992;28;1969;-75
2023/01/31 00:10:14;;;;;;;;;;;17.50;46.50;;;;;;10252056;28;821;-76
2023/01/31 00:15:12;;;;;;;;;;;17.50;46.50;;;;;;10251789;28;862;-76
2023/01/31 00:20:07;;;;;;;;;;;17.50;46.50;;;;;;10251009;28;898;-76
2023/01/31 00:25:02;;;;;;;;;;;17.50;46.50;;;;;;10251885;28;1911;-75
2023/01/31 00:29:58;;;;;;;;;;;17.50;46.50;;;;;;10250655;28;826;-76
2023/01/31 00:34:53;;;;;;;;;;;17.50;46.50;;;;;;10250492;28;818;-75
2023/01/31 00:39:49;;;;;;;;;;;17.50;46.40;;;;;;10250676;28;902;-75
2023/01/31 00:44:44;;;;;;;;;;;17.50;46.40;;;;;;10249969;28;1902;-75
2023/01/31 00:49:39;;;;;;;;;;;17.50;46.40;;;;;;10249295;28;980;-75
2023/01/31 00:54:35;;;;;;;;;;;17.50;46.40;;;;;;10249770;28;869;-76
2023/01/31 00:59:30;;;;;;;;;;;17.50;46.50;;;;;;10249576;28;1184;-75
2023/01/31 01:04:25;;;;;;;;;;;17.50;46.40;;;;;;10250108;28;1914;-75
2023/01/31 01:09:21;;;;;;;;;;;17.50;46.50;;;;;;10250409;28;891;-75
2023/01/31 01:14:17;;;;;;;;;;;17.50;46.40;;;;;;10249637;28;795;-75
2023/01/31 01:19:12;;;;;;;;;;;17.50;46.40;;;;;;10248810;28;964;-75
2023/01/31 01:24:08;;;;;;;;;;;17.50;46.40;;;;;;10249213;28;806;-75
2023/01/31 01:29:03;;;;;;;;;;;17.50;46.30;;;;;;10248324;28;1906;-75
2023/01/31 01:33:58;;;;;;;;;;;17.50;46.30;;;;;;10248245;28;773;-75
2023/01/31 01:38:54;;;;;;;;;;;17.40;46.40;;;;;;10248587;28;833;-76
2023/01/31 01:43:49;;;;;;;;;;;17.40;46.30;;;;;;10249080;28;860;-75
2023/01/31 01:48:45;;;;;;;;;;;17.50;46.20;;;;;;10247012;28;1906;-75
2023/01/31 01:53:40;;;;;;;;;;;17.50;46.20;;;;;;10247490;28;779;-75
2023/01/31 01:58:35;;;;;;;;;;;17.40;46.00;;;;;;10247652;28;1434;-76
2023/01/31 02:03:31;;;;;;;;;;;17.40;46.10;;;;;;10246408;28;723;-75
2023/01/31 02:08:26;;;;;;;;;;;17.40;46.20;;;;;;10246465;28;1913;-75
2023/01/31 02:13:21;;;;;;;;;;;17.40;46.00;;;;;;10246727;28;866;-75
2023/01/31 02:18:17;;;;;;;;;;;17.50;46.00;;;;;;10247103;28;818;-75
2023/01/31 02:23:12;;;;;;;;;;;17.40;46.00;;;;;;10246261;28;882;-75
2023/01/31 02:28:08;;;;;;;;;;;17.40;46.00;;;;;;10246086;28;1973;-75
2023/01/31 02:33:03;;;;;;;;;;;17.40;45.70;;;;;;10246634;28;902;-75
2023/01/31 02:37:58;;;;;;;;;;;17.40;45.90;;;;;;10245844;28;904;-75
2023/01/31 02:42:54;;;;;;;;;;;17.40;46.00;;;;;;10245621;28;901;-75
2023/01/31 02:47:49;;;;;;;;;;;17.40;45.70;;;;;;10245395;28;1906;-75
2023/01/31 02:52:44;;;;;;;;;;;17.40;45.90;;;;;;10245895;28;911;-75
2023/01/31 02:57:40;;;;;;;;;;;17.40;45.80;;;;;;10245222;28;857;-75
2023/01/31 03:02:35;;;;;;;;;;;17.30;45.70;;;;;;10245218;28;1299;-75
2023/01/31 03:07:32;;;;;;;;;;;17.40;45.90;;;;;;10244657;28;1910;-75
2023/01/31 03:12:29;;;;;;;;;;;17.40;46.40;;;;;;10244332;28;895;-75
2023/01/31 03:17:33;;;;;;;;;;;17.40;45.70;;;;;;10244506;28;877;-75
2023/01/31 03:22:29;;;;;;;;;;;17.30;45.80;;;;;;10244967;28;839;-75
2023/01/31 03:27:24;;;;;;;;;;;17.40;45.80;;;;;;10245016;28;1906;-76
2023/01/31 03:32:20;;;;;;;;;;;17.40;45.70;;;;;;10245049;28;798;-75
2023/01/31 03:37:16;;;;;;;;;;;17.40;45.70;;;;;;10244204;28;829;-75
2023/01/31 03:42:12;;;;;;;;;;;17.40;45.60;;;;;;10243978;28;901;-75
2023/01/31 03:47:07;;;;;;;;;;;17.40;45.50;;;;;;10243766;28;1902;-76
2023/01/31 03:52:03;;;;;;;;;;;17.30;45.70;;;;;;10244615;28;972;-75
2023/01/31 03:56:58;;;;;;;;;;;17.40;45.60;;;;;;10243715;28;806;-75
2023/01/31 04:01:54;;;;;;;;;;;17.40;45.20;;;;;;10243212;28;1282;-75
2023/01/31 04:06:49;;;;;;;;;;;17.30;45.30;;;;;;10243438;28;1906;-76
2023/01/31 04:11:44;;;;;;;;;;;17.30;45.40;;;;;;10243974;28;762;-75
2023/01/31 04:16:40;;;;;;;;;;;17.40;45.30;;;;;;10242664;28;889;-75
2023/01/31 04:21:35;;;;;;;;;;;17.30;45.40;;;;;;10244522;28;936;-75
2023/01/31 04:26:30;;;;;;;;;;;17.40;45.30;;;;;;10247077;28;1906;-75
2023/01/31 04:31:26;;;;;;;;;;;17.40;45.40;;;;;;10251113;28;949;-75
2023/01/31 04:36:21;;;;;;;;;;;17.30;45.30;;;;;;10250471;28;775;-75
2023/01/31 04:41:17;;;;;;;;;;;17.40;45.30;;;;;;10250353;28;828;-75
2023/01/31 04:46:12;;;;;;;;;;;17.40;45.10;;;;;;10250643;28;1906;-76
2023/01/31 04:51:07;;;;;;;;;;;17.40;45.30;;;;;;10249930;28;790;-75
2023/01/31 04:56:03;;;;;;;;;;;17.40;45.30;;;;;;10250310;28;860;-75
2023/01/31 05:00:58;;;;;;;;;;;17.40;45.30;;;;;;10249564;28;1149;-75
2023/01/31 05:05:54;;;;;;;;;;;17.40;45.10;;;;;;10248759;28;1965;-75
2023/01/31 05:10:49;;;;;;;;;;;17.40;45.20;;;;;;10249211;28;768;-75
2023/01/31 05:15:45;;;;;;;;;;;17.40;45.10;;;;;;10249592;28;790;-75
2023/01/31 05:20:41;;;;;;;;;;;17.40;45.10;;;;;;10249179;28;1037;-75
2023/01/31 05:25:36;;;;;;;;;;;17.50;45.10;;;;;;10249193;28;1898;-76
2023/01/31 05:30:32;;;;;;;;;;;17.40;45.10;;;;;;10248597;28;798;-76
2023/01/31 05:35:27;;;;;;;;;;;17.50;45.00;;;;;;10248354;28;909;-75
2023/01/31 05:40:22;;;;;;;;;;;17.50;44.80;;;;;;10248062;28;766;-75
2023/01/31 05:45:18;;;;;;;;;;;17.50;44.90;;;;;;10248421;28;1961;-75
2023/01/31 05:50:13;;;;;;;;;;;17.50;45.40;;;;;;10248268;28;896;-75
2023/01/31 05:55:08;;;;;;;;;;;17.50;44.80;;;;;;10247493;28;754;-75
2023/01/31 06:00:04;;;;;;;;;;;17.50;44.90;;;;;;10246780;28;1221;-76
2023/01/31 06:04:59;;;;;;;;;;;17.60;44.70;;;;;;10246478;28;1957;-76
2023/01/31 06:09:55;;;;;;;;;;;17.60;44.70;;;;;;10247469;28;850;-76
2023/01/31 06:14:50;;;;;;;;;;;17.60;44.70;;;;;;10247331;28;859;-75
2023/01/31 06:19:45;;;;;;;;;;;17.60;44.80;;;;;;10246566;28;775;-75
2023/01/31 06:24:41;;;;;;;;;;;17.60;44.70;;;;;;10246873;28;1953;-75
2023/01/31 06:29:36;;;;;;;;;;;17.60;44.70;;;;;;10246875;28;873;-75
2023/01/31 06:34:31;;;;;;;;;;;17.60;44.80;;;;;;10246626;28;799;-74
2023/01/31 06:39:27;;;;;;;;;;;17.60;44.70;;;;;;10245794;28;865;-77
2023/01/31 06:44:22;;;;;;;;;;;17.60;44.70;;;;;;10245715;28;782;-78
2023/01/31 06:49:18;;;;;;;;;;;17.60;44.80;;;;;;10244364;28;1967;-78
2023/01/31 06:54:13;;;;;;;;;;;17.60;44.70;;;;;;10246053;28;897;-78
2023/01/31 06:59:09;;;;;;;;;;;17.60;44.90;;;;;;10245260;28;1104;-75
2023/01/31 07:04:04;;;;;;;;;;;17.60;44.90;;;;;;10244039;28;1114;-75
2023/01/31 07:09:00;;;;;;;;;;;17.60;44.90;;;;;;10244414;28;1918;-75
2023/01/31 07:13:55;;;;;;;;;;;17.50;44.90;;;;;;10244573;28;957;-76
2023/01/31 07:18:50;;;;;;;;;;;17.50;45.00;;;;;;10244803;28;929;-76
2023/01/31 07:23:46;;;;;;;;;;;17.50;45.10;;;;;;10244041;28;786;-75
2023/01/31 07:28:41;;;;;;;;;;;17.50;45.50;;;;;;10244300;28;1890;-75
2023/01/31 07:33:37;;;;;;;;;;;17.50;45.60;;;;;;10243831;28;785;-75
2023/01/31 07:38:32;;;;;;;;;;;17.50;45.60;;;;;;10243631;28;909;-80
2023/01/31 07:43:27;;;;;;;;;;;17.60;45.70;;;;;;10243650;28;912;-76
2023/01/31 07:48:23;;;;;;;;;;;17.60;45.60;;;;;;10243388;28;1961;-75
2023/01/31 07:53:18;;;;;;;;;;;17.60;45.40;;;;;;10243426;28;774;-75
2023/01/31 07:58:13;;;;;;;;;;;17.60;44.80;;;;;;10243585;28;889;-76
2023/01/31 08:08:23;;;;;;;;;;;17.60;45.30;;;;;;10251205;28;1987;-76
2023/01/31 08:13:18;;;;;;;;;;;17.60;45.60;;;;;;10252047;28;834;-76
2023/01/31 08:18:14;;;;;;;;;;;17.60;45.70;;;;;;10251456;28;874;-76
2023/01/31 08:23:09;;;;;;;;;;;17.70;45.80;;;;;;10251055;28;983;-76
2023/01/31 08:28:04;;;;;;;;;;;17.60;45.60;;;;;;10250987;28;1905;-76
2023/01/31 08:33:00;;;;;;;;;;;17.60;45.60;;;;;;10251453;28;880;-76
2023/01/31 08:37:55;;;;;;;;;;;17.60;45.80;;;;;;10250451;28;938;-76
2023/01/31 08:42:51;;;;;;;;;;;17.70;45.90;;;;;;10251426;28;834;-76
2023/01/31 08:47:46;;;;;;;;;;;17.70;45.80;;;;;;10250621;28;1902;-76
2023/01/31 08:52:41;;;;;;;;;;;17.60;45.80;;;;;;10249304;28;984;-75
2023/01/31 08:57:37;;;;;;;;;;;17.60;45.90;;;;;;10249121;28;911;-77
2023/01/31 09:02:32;;;;;;;;;;;17.60;46.60;;;;;;10248795;28;1380;-76
2023/01/31 09:07:27;;;;;;;;;;;17.60;46.20;;;;;;10248681;28;1914;-77
2023/01/31 09:12:23;;;;;;;;;;;17.50;46.10;;;;;;10249270;28;884;-77
2023/01/31 09:17:18;;;;;;;;;;;17.60;46.10;;;;;;10249901;28;859;-74
2023/01/31 09:22:14;;;;;;;;;;;17.50;46.30;;;;;;10249420;28;873;-77
2023/01/31 09:27:09;;;;;;;;;;;17.50;46.10;;;;;;10248597;28;1969;-74
2023/01/31 09:32:04;;;;;;;;;;;17.50;45.70;;;;;;10249010;28;875;-79
2023/01/31 09:37:00;;;;;;;;;;;17.40;46.00;;;;;;10248800;28;822;-80
2023/01/31 09:41:56;;;;;;;;;;;17.30;45.90;;;;;;10248008;28;858;-80
2023/01/31 09:46:51;;;;;;;;;;;17.20;46.10;;;;;;10248426;28;1914;-80
2023/01/31 09:51:46;;;;;;;;;;;17.20;46.30;;;;;;10247709;28;774;-80
2023/01/31 09:56:42;;;;;;;;;;;17.20;46.30;;;;;;10247828;28;884;-80
2023/01/31 10:01:38;;;;;;;;;;;17.20;46.00;;;;;;10247036;28;1266;-80
2023/01/31 10:06:34;;;;;;;;;;;17.20;46.10;;;;;;10247117;28;1910;-80
2023/01/31 10:11:29;;;;;;;;;;;17.20;46.00;;;;;;10247567;28;813;-80
2023/01/31 10:16:25;;;;;;;;;;;17.10;46.00;;;;;;10247608;28;857;-80
2023/01/31 10:21:20;;;;;;;;;;;17.10;45.90;;;;;;10246432;28;857;-80
2023/01/31 10:26:15;;;;;;;;;;;17.10;45.90;;;;;;10245625;28;1971;-80
2023/01/31 10:31:11;;;;;;;;;;;17.10;45.80;;;;;;10246525;28;980;-80
2023/01/31 10:36:06;;;;;;;;;;;17.10;45.80;;;;;;10245408;28;838;-81
2023/01/31 10:41:02;;;;;;;;;;;17.10;45.80;;;;;;10246471;28;882;-80
2023/01/31 10:45:57;;;;;;;;;;;17.10;45.50;;;;;;10245640;28;1902;-80
2023/01/31 10:50:52;;;;;;;;;;;17.10;45.50;;;;;;10245440;28;842;-80
2023/01/31 10:55:48;;;;;;;;;;;17.10;45.60;;;;;;10245943;28;953;-80
2023/01/31 11:00:45;;;;;;;;;;;17.10;45.60;;;;;;10245290;28;1268;-80
2023/01/31 11:05:41;;;;;;;;;;;17.10;45.60;;;;;;10245530;28;1965;-80
2023/01/31 11:10:36;;;;;;;;;;;17.10;45.70;;;;;;10244786;28;826;-80
2023/01/31 11:15:31;;;;;;;;;;;17.10;45.70;;;;;;10244078;28;881;-80
2023/01/31 11:20:27;;;;;;;;;;;17.10;45.40;;;;;;10244534;28;885;-80
2023/01/31 11:25:22;;;;;;;;;;;17.10;45.40;;;;;;10244694;28;1980;-80
2023/01/31 11:30:17;;;;;;;;;;;17.10;45.60;;;;;;10244268;28;972;-81
2023/01/31 11:35:13;;;;;;;;;;;17.10;45.70;;;;;;10243397;28;942;-81
2023/01/31 11:40:08;;;;;;;;;;;17.00;45.60;;;;;;10244664;28;790;-80
2023/01/31 11:45:04;;;;;;;;;;;17.00;45.70;;;;;;10244242;28;1968;-76
2023/01/31 11:49:59;;;;;;;;;;;17.00;45.50;;;;;;10245175;28;817;-77
2023/01/31 11:54:54;;;;;;;;;;;17.00;45.40;;;;;;10243868;28;948;-79
2023/01/31 11:59:50;;;;;;;;;;;17.00;45.20;;;;;;10244242;28;1196;-80
2023/01/31 12:04:45;;;;;;;;;;;17.10;45.60;;;;;;10244182;28;1981;-81
2023/01/31 12:09:41;;;;;;;;;;;17.00;45.50;;;;;;10243534;28;844;-80
2023/01/31 12:14:37;;;;;;;;;;;17.00;45.50;;;;;;10243500;28;848;-80
2023/01/31 12:19:32;;;;;;;;;;;17.00;45.70;;;;;;10243328;28;902;-80
2023/01/31 12:24:27;;;;;;;;;;;17.00;45.50;;;;;;10243703;28;869;-81
2023/01/31 12:29:24;;;;;;;;;;;17.00;45.70;;;;;;10243159;28;1886;-79
2023/01/31 12:34:19;;;;;;;;;;;17.00;45.70;;;;;;10243456;28;817;-80
2023/01/31 12:39:16;;;;;;;;;;;17.00;45.70;;;;;;10243039;28;854;-79
2023/01/31 12:44:14;;;;;;;;;;;17.00;45.60;;;;;;10243962;28;843;-80
2023/01/31 12:49:10;;;;;;;;;;;17.00;45.60;;;;;;10249549;28;1906;-80
2023/01/31 12:54:05;;;;;;;;;;;17.00;45.60;;;;;;10249959;28;999;-80
2023/01/31 12:59:00;;;;;;;;;;;17.00;45.70;;;;;;10249220;28;1353;-80
2023/01/31 13:03:56;;;;;;;;;;;17.00;45.40;;;;;;10250210;28;968;-80
2023/01/31 13:08:51;;;;;;;;;;;16.90;45.70;;;;;;10249329;28;1968;-79
2023/01/31 13:13:47;;;;;;;;;;;16.90;45.70;;;;;;10249195;28;852;-80
2023/01/31 13:18:42;;;;;;;;;;;17.10;46.10;;;;;;10249116;28;913;-80
2023/01/31 13:23:37;;;;;;;;;;;17.10;46.30;;;;;;10249156;28;986;-80
2023/01/31 13:28:33;;;;;;;;;;;17.00;46.30;;;;;;10248613;28;1966;-77
2023/01/31 13:33:28;;;;;;;;;;;17.00;46.90;;;;;;10249662;28;865;-81
2023/01/31 13:38:23;;;;;;;;;;;17.00;46.70;;;;;;10247693;28;1170;-80
2023/01/31 13:43:19;;;;;;;;;;;16.90;46.70;;;;;;10248171;28;870;-80
2023/01/31 13:48:15;;;;;;;;;;;16.90;46.50;;;;;;10248499;28;1910;-80
2023/01/31 13:53:10;;;;;;;;;;;16.90;46.40;;;;;;10247174;28;873;-80
2023/01/31 13:58:05;;;;;;;;;;;16.90;46.40;;;;;;10247960;28;883;-80
2023/01/31 14:03:01;;;;;;;;;;;16.90;46.50;;;;;;10246414;28;1439;-81
2023/01/31 14:07:56;;;;;;;;;;;16.90;46.30;;;;;;10246768;28;1988;-80
2023/01/31 14:12:51;;;;;;;;;;;16.90;46.40;;;;;;10247911;28;858;-81
2023/01/31 14:17:47;;;;;;;;;;;16.90;46.40;;;;;;10247063;28;880;-80
2023/01/31 14:22:42;;;;;;;;;;;16.90;46.40;;;;;;10245698;28;915;-80
2023/01/31 14:27:38;;;;;;;;;;;16.90;46.30;;;;;;10246599;28;1906;-79
2023/01/31 14:32:33;;;;;;;;;;;16.90;46.40;;;;;;10245324;28;967;-81
2023/01/31 14:37:28;;;;;;;;;;;16.90;46.30;;;;;;10245657;28;802;-80
2023/01/31 14:42:24;;;;;;;;;;;16.90;46.30;;;;;;10246363;28;847;-79
2023/01/31 14:47:19;;;;;;;;;;;16.90;46.40;;;;;;10245347;28;1963;-80
2023/01/31 14:52:17;;;;;;;;;;;16.90;46.30;;;;;;10244764;28;821;-80
2023/01/31 14:57:12;;;;;;;;;;;16.90;46.30;;;;;;10244874;28;913;-80
2023/01/31 15:02:08;;;;;;;;;;;16.90;46.30;;;;;;10220711;28;1227;-79
2023/01/31 15:07:03;;;;;;;;;;;16.90;46.30;;;;;;10203076;28;1910;-78
2023/01/31 15:12:00;;;;;;;;;;;16.90;46.30;;;;;;10204445;28;774;-79
2023/01/31 15:16:55;;;;;;;;;;;16.90;46.30;;;;;;10204494;28;912;-82
2023/01/31 15:21:51;;;;;;;;;;;17.00;46.30;;;;;;10204689;28;837;-75
2023/01/31 15:26:46;;;;;;;;;;;17.30;46.70;;;;;;10204729;28;1969;-76
2023/01/31 15:31:43;;;;;;;;;;;17.40;46.50;;;;;;10203879;28;897;-76
2023/01/31 15:36:38;;;;;;;;;;;17.50;46.70;;;;;;10204613;28;906;-76
2023/01/31 15:41:33;;;;;;;;;;;17.50;46.70;;;;;;10203566;28;813;-77
2023/01/31 15:46:29;;;;;;;;;;;17.50;46.70;;;;;;10203198;28;1902;-76
2023/01/31 15:51:24;;;;;;;;;;;17.50;46.60;;;;;;10203356;28;764;-76
2023/01/31 15:56:20;;;;;;;;;;;17.50;46.60;;;;;;10203399;28;889;-74
2023/01/31 16:01:16;;;;;;;;;;;17.50;46.70;;;;;;10203753;28;1412;-75
2023/01/31 16:06:11;;;;;;;;;;;17.50;46.90;;;;;;10203336;28;1971;-75
2023/01/31 16:11:08;;;;;;;;;;;17.50;46.80;;;;;;10203195;28;806;-76
2023/01/31 16:16:03;;;;;;;;;;;17.50;46.90;;;;;;10203064;28;817;-75
2023/01/31 16:20:59;;;;;;;;;;;17.50;47.10;;;;;;10205211;28;885;-76
2023/01/31 16:25:54;;;;;;;;;;;17.50;47.00;;;;;;10210629;28;1910;-75
2023/01/31 16:30:49;;;;;;;;;;;17.50;47.00;;;;;;10210815;28;1149;-76
2023/01/31 16:35:45;;;;;;;;;;;17.60;47.60;;;;;;10210306;28;863;-75
2023/01/31 16:40:40;;;;;;;;;;;17.60;47.00;;;;;;10209928;28;921;-76
2023/01/31 16:45:35;;;;;;;;;;;17.60;47.10;;;;;;10210511;28;1981;-75
2023/01/31 16:50:31;;;;;;;;;;;17.60;47.00;;;;;;10210308;28;1095;-76
2023/01/31 16:55:26;;;;;;;;;;;17.60;47.00;;;;;;10209399;28;747;-76
2023/01/31 17:00:22;;;;;;;;;;;17.60;47.00;;;;;;10208779;28;1276;-75
2023/01/31 17:05:17;;;;;;;;;;;17.60;47.10;;;;;;10209931;28;1906;-76
2023/01/31 17:10:12;;;;;;;;;;;17.60;47.10;;;;;;10209230;28;960;-76
2023/01/31 17:15:08;;;;;;;;;;;17.60;47.00;;;;;;10208468;28;893;-75
2023/01/31 17:20:03;;;;;;;;;;;17.60;47.00;;;;;;10209411;28;862;-76
2023/01/31 17:24:58;;;;;;;;;;;17.60;46.70;;;;;;10208584;28;1902;-75
2023/01/31 17:29:54;;;;;;;;;;;17.60;46.80;;;;;;10208650;28;793;-75
2023/01/31 17:34:49;;;;;;;;;;;17.70;47.00;;;;;;10207984;28;852;-75
2023/01/31 17:39:45;;;;;;;;;;;17.70;47.10;;;;;;10208793;28;895;-74
2023/01/31 17:44:40;;;;;;;;;;;17.70;47.30;;;;;;10207952;28;896;-75
2023/01/31 17:49:35;;;;;;;;;;;17.70;47.30;;;;;;10207666;28;1906;-75
2023/01/31 17:54:31;;;;;;;;;;;17.70;47.50;;;;;;10208123;28;757;-74
2023/01/31 17:59:26;;;;;;;;;;;17.70;47.40;;;;;;10207153;28;1114;-76
2023/01/31 18:04:21;;;;;;;;;;;17.70;47.50;;;;;;10207141;28;782;-76
2023/01/31 18:09:17;;;;;;;;;;;17.60;47.10;;;;;;10206269;28;1918;-76
2023/01/31 18:14:13;;;;;;;;;;;17.70;47.10;;;;;;10207464;28;869;-76
2023/01/31 18:19:10;;;;;;;;;;;17.70;47.00;;;;;;10206499;28;986;-76
2023/01/31 18:24:06;;;;;;;;;;;17.70;46.80;;;;;;10206967;28;869;-76
2023/01/31 18:29:01;;;;;;;;;;;17.70;47.60;;;;;;10206189;28;1910;-76
2023/01/31 18:33:57;;;;;;;;;;;17.70;47.00;;;;;;10206092;28;797;-76
2023/01/31 18:38:52;;;;;;;;;;;17.70;46.90;;;;;;10206463;28;859;-76
2023/01/31 18:43:47;;;;;;;;;;;17.70;46.90;;;;;;10205770;28;896;-76
2023/01/31 18:48:43;;;;;;;;;;;17.70;46.90;;;;;;10206001;28;1956;-69
2023/01/31 18:53:38;;;;;;;;;;;17.70;46.90;;;;;;10205940;28;869;-76
2023/01/31 18:58:34;;;;;;;;;;;17.70;46.70;;;;;;10205041;28;1193;-77
2023/01/31 19:03:29;;;;;;;;;;;17.70;46.90;;;;;;10205956;28;823;-76
2023/01/31 19:08:24;;;;;;;;;;;17.60;46.70;;;;;;10204210;28;1910;-76
2023/01/31 19:13:20;;;;;;;;;;;17.60;46.80;;;;;;10204139;28;893;-75
2023/01/31 19:18:15;;;;;;;;;;;17.70;46.90;;;;;;10204873;28;865;-76
2023/01/31 19:23:10;;;;;;;;;;;17.70;46.80;;;;;;10204455;28;878;-76
2023/01/31 19:28:06;;;;;;;;;;;17.70;46.90;;;;;;10204676;28;1906;-76
2023/01/31 19:33:01;;;;;;;;;;;17.70;46.90;;;;;;10203649;28;1047;-76
2023/01/31 19:37:56;;;;;;;;;;;17.80;47.00;;;;;;10205280;28;878;-76
2023/01/31 19:42:52;;;;;;;;;;;17.70;46.90;;;;;;10203980;28;974;-77
2023/01/31 19:47:47;;;;;;;;;;;17.70;46.90;;;;;;10203153;28;1922;-75
2023/01/31 19:52:43;;;;;;;;;;;17.80;47.10;;;;;;10204401;28;991;-75
2023/01/31 19:57:38;;;;;;;;;;;17.70;46.80;;;;;;10209266;28;1210;-85
2023/01/31 20:02:33;;;;;;;;;;;17.70;47.00;;;;;;10211185;28;1440;-78
2023/01/31 20:07:29;;;;;;;;;;;17.50;47.40;;;;;;10212185;28;1918;-79
2023/01/31 20:12:24;;;;;;;;;;;17.40;47.50;;;;;;10212075;28;849;-79
2023/01/31 20:17:19;;;;;;;;;;;17.40;47.50;;;;;;10211306;28;810;-79
2023/01/31 20:22:16;;;;;;;;;;;17.30;47.40;;;;;;10211659;28;1237;-78
2023/01/31 20:27:12;;;;;;;;;;;17.30;47.40;;;;;;10210774;28;1971;-78
2023/01/31 20:32:08;;;;;;;;;;;17.30;47.30;;;;;;10210957;28;925;-79
2023/01/31 20:37:03;;;;;;;;;;;17.30;47.30;;;;;;10210465;28;1001;-82
2023/01/31 20:41:59;;;;;;;;;;;17.30;47.20;;;;;;10210360;28;753;-77
2023/01/31 20:46:54;;;;;;;;;;;17.30;47.20;;;;;;10210069;28;1910;-77
2023/01/31 20:51:49;;;;;;;;;;;17.30;47.20;;;;;;10210593;28;883;-77
2023/01/31 20:56:45;;;;;;;;;;;17.20;47.30;;;;;;10209795;28;767;-77
2023/01/31 21:01:42;;;;;;;;;;;17.20;47.30;;;;;;10210357;28;1394;-77
2023/01/31 21:06:37;;;;;;;;;;;17.20;47.30;;;;;;10208586;28;1945;-77
2023/01/31 21:11:32;;;;;;;;;;;17.20;47.30;;;;;;10209841;28;837;-77
2023/01/31 21:16:28;;;;;;;;;;;17.20;47.30;;;;;;10209197;28;892;-77
2023/01/31 21:21:24;;;;;;;;;;;17.10;47.20;;;;;;10208924;28;806;-76
2023/01/31 21:26:19;;;;;;;;;;;17.10;47.10;;;;;;10208558;28;1902;-76
2023/01/31 21:31:15;;;;;;;;;;;17.10;47.10;;;;;;10207816;28;887;-76
2023/01/31 21:36:10;;;;;;;;;;;17.10;47.10;;;;;;10208552;28;787;-76
2023/01/31 21:46:20;;;;;;;;;;;17.10;47.00;;;;;;10207351;28;1914;-76
2023/01/31 21:51:15;;;;;;;;;;;17.10;46.90;;;;;;10207739;28;760;-76
2023/01/31 21:56:10;;;;;;;;;;;17.10;46.90;;;;;;10208171;28;865;-76
2023/01/31 22:01:06;;;;;;;;;;;17.10;46.80;;;;;;10206834;28;1409;-76
2023/01/31 22:06:02;;;;;;;;;;;17.10;46.80;;;;;;10207668;28;1921;-76
2023/01/31 22:10:57;;;;;;;;;;;17.10;46.90;;;;;;10207000;28;756;-76
2023/01/31 22:15:52;;;;;;;;;;;17.10;46.80;;;;;;10207368;28;945;-76
2023/01/31 22:20:48;;;;;;;;;;;17.10;46.80;;;;;;10205514;28;804;-77
2023/01/31 22:25:43;;;;;;;;;;;17.10;46.80;;;;;;10205682;28;1902;-76
2023/01/31 22:30:38;;;;;;;;;;;17.00;46.80;;;;;;10206699;28;870;-76
2023/01/31 22:35:34;;;;;;;;;;;17.10;46.90;;;;;;10206822;28;959;-76
2023/01/31 22:40:29;;;;;;;;;;;17.10;46.80;;;;;;10205271;28;889;-76
2023/01/31 22:45:24;;;;;;;;;;;17.00;46.80;;;;;;10206211;28;1906;-76
2023/01/31 22:50:20;;;;;;;;;;;17.10;46.80;;;;;;10206160;28;835;-76
2023/01/31 22:55:15;;;;;;;;;;;17.10;46.80;;;;;;10204915;28;935;-76
2023/01/31 23:00:11;;;;;;;;;;;17.00;46.70;;;;;;10205280;28;1154;-76
2023/01/31 23:05:06;;;;;;;;;;;17.00;46.80;;;;;;10205654;28;1906;-77
2023/01/31 23:10:01;;;;;;;;;;;17.00;46.70;;;;;;10206333;28;839;-76
2023/01/31 23:14:57;;;;;;;;;;;17.00;46.70;;;;;;10205383;28;813;-77
2023/01/31 23:19:52;;;;;;;;;;;17.00;46.70;;;;;;10204744;28;856;-77
2023/01/31 23:24:47;;;;;;;;;;;17.00;46.60;;;;;;10204480;28;793;-77
2023/01/31 23:29:43;;;;;;;;;;;17.00;46.70;;;;;;10204513;28;1965;-77
2023/01/31 23:34:38;;;;;;;;;;;17.10;46.50;;;;;;10204281;28;900;-76
2023/01/31 23:39:33;;;;;;;;;;;17.00;46.50;;;;;;10204074;28;801;-76
2023/01/31 23:44:29;;;;;;;;;;;17.00;46.60;;;;;;10204759;28;826;-77
2023/01/31 23:49:24;;;;;;;;;;;17.00;46.50;;;;;;10204531;28;1902;-77
2023/01/31 23:54:19;;;;;;;;;;;17.00;46.60;;;;;;10203903;28;900;-77
2023/01/31 23:59:15;;;;;;;;;;;17.00;46.60;;;;;;10203576;28;1312;-77
